Time;durP1;ratioP1;P1;durP2;ratioP2;P2;SDS_P1;SDS_P2;PMS_P1;PMS_P2;Temp;Humidity;BMP_temperature;BMP_pressure;BME280_temperature;BME280_humidity;BME280_pressure;Samples;Min_cycle;Max_cycle;Signal;HPM_P1;HPM_P2
2021/03/25 00:02:07;;;;;;;22.75;11.45;;;;;;;2.71;80.31;100299.41;1709540;84;21832;-60
2021/03/25 00:04:42;;;;;;;23.00;11.08;;;;;;;2.72;80.26;100297.22;1703334;83;21271;-62
2021/03/25 00:07:15;;;;;;;18.65;10.32;;;;;;;2.72;80.23;100290.75;1709612;84;21984;-60
2021/03/25 00:09:50;;;;;;;22.82;11.25;;;;;;;2.72;80.17;100287.69;1702237;84;21757;-62
2021/03/25 00:12:23;;;;;;;22.80;11.80;;;;;;;2.72;80.15;100287.69;1709337;84;21871;-60
2021/03/25 00:14:57;;;;;;;17.48;10.48;;;;;;;2.70;80.12;100286.94;1702774;84;21280;-60
2021/03/25 00:17:30;;;;;;;15.50;10.43;;;;;;;2.66;80.17;100285.45;1709715;84;21820;-60
2021/03/25 00:20:11;;;;;;;20.45;11.85;;;;;;;2.66;80.27;100282.03;1703077;84;21710;-60
2021/03/25 00:22:44;;;;;;;26.82;11.85;;;;;;;2.67;80.30;100275.95;1708936;84;21247;-61
2021/03/25 00:25:20;;;;;;;19.65;10.48;;;;;;;2.72;80.35;100277.34;1702572;84;21821;-61
2021/03/25 00:27:53;;;;;;;18.05;10.50;;;;;;;2.75;80.27;100278.13;1708965;84;21234;-60
2021/03/25 00:30:30;;;;;;;18.27;10.32;;;;;;;2.77;80.33;100276.28;1702644;84;21302;-59
2021/03/25 00:33:05;;;;;;;20.60;11.12;;;;;;;2.81;80.23;100272.59;1708919;84;21337;-60
2021/03/25 00:35:39;;;;;;;21.55;11.20;;;;;;;2.82;80.14;100273.78;1712876;83;21281;-61
2021/03/25 00:38:13;;;;;;;;;;;;;;;2.79;80.01;100271.39;1710496;84;21258;-61
2021/03/25 00:40:48;;;;;;;24.70;12.43;;;;;;;2.76;80.11;100266.39;1702293;83;20232;-60
2021/03/25 00:43:22;;;;;;;21.07;10.68;;;;;;;2.72;80.11;100270.08;1708949;84;21333;-59
2021/03/25 00:45:55;;;;;;;19.65;10.60;;;;;;;2.73;80.22;100267.84;1701789;83;21182;-60
2021/03/25 00:48:28;;;;;;;19.45;10.48;;;;;;;2.77;80.30;100277.56;1708957;84;21829;-59
2021/03/25 00:51:02;;;;;;;17.25;10.35;;;;;;;2.81;80.25;100275.17;1703548;83;21184;-61
2021/03/25 00:53:37;;;;;;;16.87;10.28;;;;;;;2.83;80.10;100279.34;1709405;84;21792;-61
2021/03/25 00:56:10;;;;;;;16.30;10.28;;;;;;;2.83;80.06;100276.75;1702939;83;21737;-60
2021/03/25 00:58:43;;;;;;;18.70;10.07;;;;;;;2.85;80.12;100279.24;1709150;84;21801;-62
2021/03/25 01:01:16;;;;;;;15.90;10.13;;;;;;;2.94;80.06;100280.84;1703083;84;21252;-60
2021/03/25 01:03:49;;;;;;;22.22;11.43;;;;;;;2.97;79.90;100278.09;1709095;84;21761;-60
2021/03/25 01:06:23;;;;;;;18.13;11.17;;;;;;;3.02;79.70;100276.53;1721061;83;21824;-60
2021/03/25 01:08:56;;;;;;;21.50;11.73;;;;;;;3.02;79.70;100276.53;1709108;83;22063;-59
2021/03/25 01:11:30;;;;;;;20.13;11.43;;;;;;;3.01;79.59;100272.30;1703166;84;21285;-59
2021/03/25 01:14:08;;;;;;;20.20;10.72;;;;;;;3.00;79.58;100274.05;1708875;84;21625;-61
2021/03/25 01:16:44;;;;;;;20.80;10.63;;;;;;;3.04;79.60;100277.27;1702987;84;21305;-62
2021/03/25 01:19:27;;;;;;;18.30;10.38;;;;;;;3.08;79.47;100276.20;1708366;84;21321;-60
2021/03/25 01:22:00;;;;;;;15.43;9.48;;;;;;;3.06;79.36;100277.56;1703012;84;21322;-61
2021/03/25 01:24:34;;;;;;;14.98;9.95;;;;;;;3.11;79.35;100281.17;1708874;84;21745;-60
2021/03/25 01:27:09;;;;;;;17.82;10.60;;;;;;;3.12;79.22;100282.40;1703101;84;21262;-60
2021/03/25 01:29:44;;;;;;;18.92;10.10;;;;;;;3.12;79.14;100286.27;1709543;84;21340;-60
2021/03/25 01:32:17;;;;;;;18.62;10.68;;;;;;;3.10;79.00;100286.83;1703290;84;21810;-61
2021/03/25 01:34:51;;;;;;;24.52;10.53;;;;;;;3.07;79.10;100285.70;1708746;84;21155;-61
2021/03/25 01:37:24;;;;;;;17.92;10.23;;;;;;;3.05;79.09;100286.26;1703083;84;21797;-60
2021/03/25 01:39:59;;;;;;;23.32;10.93;;;;;;;3.03;79.06;100288.10;1707419;84;21384;-60
2021/03/25 01:42:35;;;;;;;17.00;10.10;;;;;;;3.02;79.06;100281.70;1703242;83;21698;-63
2021/03/25 01:45:33;;;;;;;17.77;10.78;;;;;;;3.00;79.07;100282.26;1710134;84;21317;-62
2021/03/25 01:48:07;;;;;;;19.15;11.30;;;;;;;2.95;79.12;100292.03;1702928;84;21832;-61
2021/03/25 01:50:41;;;;;;;19.90;10.50;;;;;;;2.92;79.27;100293.48;1679799;84;21270;-63
2021/03/25 01:53:49;;;;;;;21.48;11.55;;;;;;;2.91;79.37;100302.18;1710275;84;21753;-60
2021/03/25 01:56:46;;;;;;;20.05;11.25;;;;;;;2.90;79.45;100298.76;1703825;83;21262;-60
2021/03/25 01:59:29;;;;;;;22.87;11.38;;;;;;;2.89;79.48;100295.78;1709404;84;21864;-59
2021/03/25 02:02:47;;;;;;;22.35;10.63;;;;;;;2.88;79.54;100306.22;1652808;86;22210;-60
2021/03/25 02:05:41;;;;;;;21.97;11.38;;;;;;;2.86;79.63;100301.60;1712747;84;21277;-62
2021/03/25 02:08:45;;;;;;;26.85;11.33;;;;;;;2.87;79.78;100304.55;1710352;84;21298;-62
2021/03/25 02:11:32;;;;;;;22.10;11.60;;;;;;;2.88;79.78;100305.77;1701746;83;21168;-60
2021/03/25 02:14:28;;;;;;;23.38;12.30;;;;;;;2.85;79.83;100302.52;1709754;84;21341;-60
2021/03/25 02:17:15;;;;;;;23.57;12.25;;;;;;;2.88;79.91;100303.64;1718828;83;21193;-61
2021/03/25 02:20:23;;;;;;;20.37;11.03;;;;;;;2.90;79.90;100314.27;1707289;84;21361;-60
2021/03/25 02:23:26;;;;;;;22.22;11.38;;;;;;;2.90;79.86;100314.27;1712776;84;21282;-60
2021/03/25 02:26:09;;;;;;;24.30;12.53;;;;;;;2.89;79.89;100317.77;1709599;84;22119;-59
2021/03/25 02:29:22;;;;;;;24.90;12.10;;;;;;;2.84;79.95;100320.25;1719449;83;21304;-60
2021/03/25 02:32:03;;;;;;;25.05;11.57;;;;;;;2.84;80.06;100322.39;1708887;83;21825;-60
2021/03/25 02:34:39;;;;;;;20.32;11.05;;;;;;;2.86;80.10;100327.01;1680927;84;22130;-59
2021/03/25 02:37:30;;;;;;;21.75;11.30;;;;;;;2.88;80.08;100330.79;1709961;84;21339;-60
2021/03/25 02:40:14;;;;;;;19.70;10.60;;;;;;;2.87;80.15;100329.95;1702081;84;21159;-60
2021/03/25 02:43:17;;;;;;;20.82;11.80;;;;;;;2.89;80.17;100336.34;1708838;83;21273;-59
2021/03/25 02:46:05;;;;;;;25.23;12.28;;;;;;;2.90;80.09;100329.78;1702357;84;21294;-60
2021/03/25 02:48:39;;;;;;;26.48;12.43;;;;;;;2.92;80.10;100333.11;1701304;84;21813;-59
2021/03/25 02:51:21;;;;;;;;;;;;;;;2.96;79.97;100335.89;1704376;84;21333;-59
2021/03/25 02:53:56;;;;;;;20.20;11.18;;;;;;;2.96;79.95;100332.50;1680442;84;20282;-61
2021/03/25 02:56:51;;;;;;;22.30;11.35;;;;;;;2.96;79.97;100338.48;1681483;84;21801;-60
2021/03/25 02:59:34;;;;;;;25.88;11.50;;;;;;;2.98;79.86;100346.17;1701455;84;21188;-61
2021/03/25 03:02:27;;;;;;;21.70;11.57;;;;;;;3.02;79.86;100348.95;1701977;84;21302;-60
2021/03/25 03:05:09;;;;;;;19.62;11.33;;;;;;;3.04;79.69;100345.81;1680087;84;21285;-60
2021/03/25 03:07:47;;;;;;;20.08;10.95;;;;;;;3.05;79.67;100348.78;1702394;84;21674;-61
2021/03/25 03:10:25;;;;;;;20.65;12.07;;;;;;;3.06;79.54;100347.39;1700227;84;21171;-61
2021/03/25 03:12:59;;;;;;;29.85;13.95;;;;;;;3.09;79.36;100342.05;1700501;84;21151;-61
2021/03/25 03:15:37;;;;;;;23.07;12.20;;;;;;;3.12;79.19;100351.39;1701917;84;21298;-61
2021/03/25 03:18:23;;;;;;;36.13;13.78;;;;;;;3.10;79.02;100359.70;1700846;84;21278;-63
2021/03/25 03:21:03;;;;;;;44.18;15.53;;;;;;;3.07;79.01;100358.13;1700837;84;21254;-59
2021/03/25 03:23:48;;;;;;;50.90;17.98;;;;;;;3.07;78.92;100362.45;1700434;84;21222;-60
2021/03/25 03:26:29;;;;;;;42.55;15.60;;;;;;;3.05;78.99;100364.30;1701385;84;21348;-60
2021/03/25 03:29:06;;;;;;;27.75;12.20;;;;;;;3.06;78.98;100361.62;1681356;84;21773;-61
2021/03/25 03:31:46;;;;;;;24.67;11.05;;;;;;;3.08;78.88;100365.43;1701220;84;21195;-59
2021/03/25 03:34:34;;;;;;;20.57;9.75;;;;;;;3.11;78.81;100376.88;1696764;84;21309;-60
2021/03/25 03:37:29;;;;;;;18.15;9.38;;;;;;;3.13;78.82;100374.58;1702543;84;21202;-61
2021/03/25 03:40:06;;;;;;;21.62;11.60;;;;;;;3.18;78.73;100369.98;1699646;84;22084;-60
2021/03/25 03:42:43;;;;;;;19.27;10.78;;;;;;;3.20;78.59;100377.19;1698289;84;21310;-58
2021/03/25 03:45:19;;;;;;;18.00;10.13;;;;;;;3.18;78.37;100376.45;1702749;84;21302;-57
2021/03/25 03:47:54;;;;;;;16.82;9.88;;;;;;;3.18;78.41;100377.74;1697756;84;21694;-57
2021/03/25 03:50:34;;;;;;;22.30;10.55;;;;;;;3.18;78.31;100379.48;1686357;84;21294;-57
2021/03/25 03:53:07;;;;;;;24.35;11.83;;;;;;;3.18;78.27;100380.78;1702767;84;21759;-57
2021/03/25 03:55:42;;;;;;;29.50;11.85;;;;;;;3.19;78.29;100383.30;1685018;84;21191;-57
2021/03/25 03:58:25;;;;;;;17.45;8.90;;;;;;;3.24;78.26;100385.63;1687708;84;21207;-57
2021/03/25 04:01:41;;;;;;;26.00;11.12;;;;;;;3.30;78.13;100387.85;1711271;83;21714;-57
2021/03/25 04:04:31;;;;;;;24.27;12.28;;;;;;;3.33;77.92;100389.82;1714014;83;21237;-58
2021/03/25 04:07:20;;;;;;;20.52;10.28;;;;;;;3.32;77.83;100389.44;1717320;82;21294;-57
2021/03/25 04:10:15;;;;;;;16.87;8.73;;;;;;;3.36;77.70;100393.53;1703605;84;21278;-57
2021/03/25 04:12:55;;;;;;;17.85;10.20;;;;;;;3.40;77.53;100386.41;1685023;84;21297;-57
2021/03/25 04:15:30;;;;;;;18.65;8.33;;;;;;;3.44;77.44;100401.33;1703403;84;21304;-57
2021/03/25 04:18:19;;;;;;;18.92;9.58;;;;;;;3.48;77.30;100395.04;1668565;85;21261;-57
2021/03/25 04:21:20;;;;;;;18.32;9.75;;;;;;;3.50;77.17;100399.20;1720638;82;21331;-58
2021/03/25 04:23:52;;;;;;;;;;;;;;;3.54;77.15;100396.80;1732554;83;21795;-57
2021/03/25 04:26:33;;;;;;;17.95;9.80;;;;;;;3.57;76.82;100395.34;1730744;83;20196;-58
2021/03/25 04:29:12;;;;;;;18.12;10.28;;;;;;;3.57;76.70;100398.39;1731511;83;21138;-58
2021/03/25 04:31:46;;;;;;;18.20;9.13;;;;;;;3.58;76.55;100400.91;1729770;82;21129;-58
2021/03/25 04:34:19;;;;;;;16.05;8.58;;;;;;;3.58;76.50;100404.79;1704046;84;21844;-58
2021/03/25 04:36:52;;;;;;;16.37;8.90;;;;;;;3.59;76.46;100401.27;1687631;84;21266;-58
2021/03/25 04:39:25;;;;;;;12.37;7.77;;;;;;;3.60;76.32;100406.83;1688502;84;21262;-57
2021/03/25 04:41:58;;;;;;;14.37;8.60;;;;;;;3.63;76.22;100408.41;1690090;84;21202;-58
2021/03/25 04:44:55;;;;;;;16.52;9.43;;;;;;;3.64;76.15;100413.94;1704926;84;21135;-58
2021/03/25 04:47:34;;;;;;;22.00;12.00;;;;;;;3.67;76.09;100415.06;1628142;87;21229;-58
2021/03/25 04:50:27;;;;;;;20.57;11.12;;;;;;;3.68;76.04;100412.86;1702821;84;21303;-57
2021/03/25 04:53:05;;;;;;;27.30;12.15;;;;;;;3.70;75.97;100421.37;1684659;85;22130;-58
2021/03/25 04:55:38;;;;;;;17.55;9.73;;;;;;;3.72;75.86;100419.52;1674594;85;21318;-57
2021/03/25 04:58:13;;;;;;;21.33;10.07;;;;;;;3.73;75.80;100417.28;1684159;85;21179;-58
2021/03/25 05:00:46;;;;;;;12.07;7.45;;;;;;;3.78;75.78;100422.58;1686060;84;21278;-57
2021/03/25 05:03:24;;;;;;;9.40;6.67;;;;;;;3.83;75.62;100425.73;1701656;84;21223;-58
2021/03/25 05:05:57;;;;;;;17.12;8.93;;;;;;;3.87;75.55;100425.92;1685561;84;21160;-59
2021/03/25 05:08:33;;;;;;;11.90;7.30;;;;;;;3.90;75.47;100430.92;1681575;84;21269;-59
2021/03/25 05:11:16;;;;;;;20.17;12.55;;;;;;;3.95;75.35;100431.50;1672272;85;21309;-58
2021/03/25 05:13:51;;;;;;;15.10;9.65;;;;;;;4.00;75.28;100426.87;1702487;83;22016;-59
2021/03/25 05:17:14;;;;;;;14.05;8.18;;;;;;;4.05;75.13;100435.22;1683524;85;21199;-58
2021/03/25 05:20:15;;;;;;;14.78;8.48;;;;;;;4.13;75.08;100441.25;1683765;84;21278;-59
2021/03/25 05:23:08;;;;;;;13.25;7.65;;;;;;;4.17;74.88;100436.25;1674241;85;21196;-59
2021/03/25 05:25:54;;;;;;;12.23;7.70;;;;;;;4.20;74.66;100430.05;1688432;84;21799;-62
2021/03/25 05:28:35;;;;;;;15.28;7.40;;;;;;;4.27;74.55;100436.53;1702176;84;21324;-59
2021/03/25 05:31:11;;;;;;;14.35;8.38;;;;;;;4.31;74.39;100442.73;1684849;85;21289;-59
2021/03/25 05:33:52;;;;;;;17.62;7.62;;;;;;;4.36;74.23;100435.52;1686493;84;21321;-59
2021/03/25 05:36:25;;;;;;;15.32;8.10;;;;;;;4.43;73.82;100445.05;1702581;84;21203;-60
2021/03/25 05:38:59;;;;;;;13.10;7.37;;;;;;;4.46;73.71;100443.57;1683656;84;22210;-61
2021/03/25 05:41:41;;;;;;;14.80;7.67;;;;;;;4.54;73.53;100441.33;1703089;84;21282;-60
2021/03/25 05:44:43;;;;;;;13.72;7.92;;;;;;;4.65;73.52;100437.63;1684277;84;21360;-59
2021/03/25 05:47:30;;;;;;;11.48;7.35;;;;;;;4.78;73.20;100435.93;1670111;84;21243;-61
2021/03/25 05:50:31;;;;;;;31.42;17.82;;;;;;;4.83;72.85;100437.78;1683051;84;21297;-60
2021/03/25 05:53:26;;;;;;;33.08;21.90;;;;;;;4.85;72.51;100439.81;1697678;84;21388;-59
2021/03/25 05:56:30;;;;;;;16.77;8.43;;;;;;;4.86;72.32;100429.81;1646842;84;22188;-60
2021/03/25 06:03:15;;;;;;;13.75;6.97;;;;;;;4.85;72.07;100438.52;1643443;86;21213;-61
2021/03/25 06:10:40;;;;;;;18.10;8.65;;;;;;;4.76;71.74;100436.04;1697765;84;21183;-59
2021/03/25 06:13:30;;;;;;;11.20;6.40;;;;;;;4.78;71.80;100438.06;1697741;84;21274;-59
2021/03/25 06:16:44;;;;;;;13.53;7.05;;;;;;;4.83;71.58;100440.83;1697350;84;21183;-59
2021/03/25 06:19:39;;;;;;;14.75;9.08;;;;;;;4.95;71.63;100434.88;1697260;84;21309;-59
2021/03/25 06:22:24;;;;;;;16.95;9.13;;;;;;;5.13;71.33;100433.74;1696382;84;21187;-60
2021/03/25 06:25:49;;;;;;;12.63;7.05;;;;;;;5.27;70.99;100434.53;1697516;84;21345;-60
2021/03/25 06:28:41;;;;;;;11.22;6.40;;;;;;;5.43;70.57;100438.26;1697810;84;21368;-62
2021/03/25 06:35:37;;;;;;;10.55;7.00;;;;;;;5.71;69.47;100439.42;1697055;84;21446;-62
2021/03/25 06:38:34;;;;;;;7.37;5.08;;;;;;;5.95;68.93;100431.33;1698203;84;21346;-60
2021/03/25 06:41:22;;;;;;;10.00;5.78;;;;;;;6.15;68.21;100433.06;1696841;84;21203;-60
2021/03/25 06:44:20;;;;;;;15.88;8.40;;;;;;;6.56;67.61;100441.47;1697645;84;22204;-59
2021/03/25 06:47:25;;;;;;;9.40;5.58;;;;;;;7.02;66.69;100446.89;1696566;84;21238;-60
2021/03/25 06:50:03;;;;;;;17.50;9.15;;;;;;;7.28;64.53;100436.75;1696959;84;21357;-63
2021/03/25 06:52:39;;;;;;;7.80;5.55;;;;;;;7.31;63.47;100434.74;1697405;84;21332;-62
2021/03/25 06:55:17;;;;;;;27.58;16.45;;;;;;;7.31;62.71;100434.74;1704130;84;21401;-60
2021/03/25 06:58:05;;;;;;;9.35;5.97;;;;;;;7.26;62.72;100443.35;1698128;83;21613;-61
2021/03/25 07:00:50;;;;;;;12.37;6.55;;;;;;;7.33;62.24;100437.25;1704494;84;21469;-61
2021/03/25 07:03:23;;;;;;;7.90;4.53;;;;;;;7.51;61.86;100444.19;1714310;83;21310;-58
2021/03/25 07:05:56;;;;;;;8.87;5.50;;;;;;;7.73;61.51;100438.59;1704704;83;21393;-60
2021/03/25 07:08:32;;;;;;;10.88;7.15;;;;;;;7.93;61.45;100439.70;1698664;84;21857;-60
2021/03/25 07:11:17;;;;;;;10.53;6.08;;;;;;;8.11;60.81;100439.64;1705471;84;21207;-60
2021/03/25 07:14:02;;;;;;;10.90;5.33;;;;;;;8.18;59.94;100443.91;1698012;83;21206;-60
2021/03/25 07:16:39;;;;;;;7.97;5.42;;;;;;;8.23;60.36;100446.54;1705694;84;21325;-61
2021/03/25 07:19:19;;;;;;;9.20;5.53;;;;;;;8.40;60.46;100449.20;1697855;83;22055;-61
2021/03/25 07:22:14;;;;;;;9.10;5.55;;;;;;;8.65;59.33;100441.95;1705485;84;21190;-60
2021/03/25 07:24:47;;;;;;;11.65;7.40;;;;;;;8.69;58.58;100439.45;1697505;83;21341;-62
2021/03/25 07:27:35;;;;;;;9.18;6.00;;;;;;;8.78;58.77;100452.28;1705818;84;21251;-60
2021/03/25 07:30:14;;;;;;;8.20;6.15;;;;;;;8.71;57.92;100449.33;1697963;83;21211;-59
2021/03/25 07:32:53;;;;;;;10.68;5.87;;;;;;;8.39;57.57;100451.44;1698175;84;21187;-59
2021/03/25 07:35:54;;;;;;;10.18;6.30;;;;;;;8.18;58.32;100460.39;1704770;84;21206;-60
2021/03/25 07:38:38;;;;;;;11.22;5.67;;;;;;;8.19;58.64;100463.38;1698967;83;21199;-60
2021/03/25 07:41:32;;;;;;;8.83;5.75;;;;;;;8.28;58.76;100462.70;1705510;84;21325;-59
2021/03/25 07:44:10;;;;;;;7.62;4.72;;;;;;;8.32;58.53;100478.47;1699557;83;21398;-60
2021/03/25 07:46:50;;;;;;;8.88;5.10;;;;;;;8.44;57.99;100464.49;1704321;84;21375;-60
2021/03/25 07:49:35;;;;;;;9.35;4.72;;;;;;;8.80;58.09;100465.57;1698028;83;22131;-59
2021/03/25 07:52:29;;;;;;;10.08;5.60;;;;;;;9.49;56.57;100466.14;1698180;84;21199;-60
2021/03/25 07:55:16;;;;;;;7.42;5.53;;;;;;;9.98;55.85;100472.92;1697960;84;22164;-60
2021/03/25 07:57:51;;;;;;;9.40;6.00;;;;;;;10.32;54.65;100463.13;1696638;84;21363;-62
2021/03/25 08:00:34;;;;;;;7.22;4.53;;;;;;;10.31;53.20;100458.03;1676112;84;21360;-62
2021/03/25 08:07:18;;;;;;;8.45;4.58;;;;;;;9.71;53.03;100464.76;1698333;83;21461;-59
2021/03/25 08:10:00;;;;;;;7.75;4.97;;;;;;;9.37;54.37;100466.66;1705520;84;21333;-60
2021/03/25 08:12:37;;;;;;;6.90;4.85;;;;;;;9.22;53.83;100456.59;1698329;84;21365;-60
2021/03/25 08:15:35;;;;;;;8.95;5.83;;;;;;;8.86;54.33;100464.23;1705110;84;22122;-59
2021/03/25 08:18:29;;;;;;;8.68;5.22;;;;;;;8.61;55.33;100457.98;1698489;83;21301;-59
2021/03/25 08:21:19;;;;;;;6.95;4.67;;;;;;;8.44;55.71;100464.49;1704772;84;21258;-60
2021/03/25 08:24:05;;;;;;;6.72;4.83;;;;;;;8.31;56.78;100457.73;1698448;83;21492;-60
2021/03/25 08:27:35;;;;;;;12.65;7.78;;;;;;;8.28;57.00;100454.88;1704077;84;21356;-58
2021/03/25 08:30:40;;;;;;;8.15;5.75;;;;;;;8.25;57.33;100458.98;1698190;83;21968;-58
2021/03/25 08:33:24;;;;;;;8.17;5.63;;;;;;;8.22;58.01;100460.52;1705995;84;22032;-59
2021/03/25 08:36:23;;;;;;;6.08;5.10;;;;;;;8.25;57.78;100462.89;1697623;83;21361;-62
2021/03/25 08:39:40;;;;;;;7.15;4.37;;;;;;;8.30;57.64;100452.98;1704960;84;21317;-59
2021/03/25 08:42:39;;;;;;;9.50;5.03;;;;;;;8.19;57.09;100451.64;1698655;83;21466;-59
2021/03/25 08:45:35;;;;;;;8.08;5.60;;;;;;;8.13;57.59;100460.75;1705490;84;21344;-60
2021/03/25 08:48:27;;;;;;;9.13;5.83;;;;;;;8.13;57.27;100463.82;1698237;83;21330;-61
2021/03/25 08:51:17;;;;;;;6.97;5.10;;;;;;;8.09;57.86;100461.09;1704625;84;21594;-58
2021/03/25 08:54:04;;;;;;;7.08;4.58;;;;;;;8.07;57.87;100462.49;1708784;82;22032;-62
2021/03/25 08:56:47;;;;;;;6.80;4.45;;;;;;;7.93;57.24;100459.25;1680150;85;21325;-59
2021/03/25 08:59:34;;;;;;;8.73;4.75;;;;;;;7.73;57.36;100450.80;1679183;84;21854;-60
2021/03/25 09:02:33;;;;;;;6.95;4.95;;;;;;;7.54;57.34;100459.59;1686140;84;21612;-61
2021/03/25 09:05:14;;;;;;;27.75;15.90;;;;;;;7.39;58.19;100458.94;1685446;84;21210;-62
2021/03/25 09:07:48;;;;;;;9.98;5.50;;;;;;;7.30;58.89;100461.74;1682762;84;21211;-59
2021/03/25 09:10:43;;;;;;;14.87;9.55;;;;;;;7.39;58.87;100464.98;1680835;84;22128;-62
2021/03/25 09:13:26;;;;;;;6.37;4.40;;;;;;;7.56;58.54;100469.44;1657044;85;21329;-61
2021/03/25 09:16:04;;;;;;;13.08;10.05;;;;;;;7.61;58.41;100466.02;1681151;84;22132;-61
2021/03/25 09:18:44;;;;;;;7.37;4.80;;;;;;;7.64;58.96;100464.50;1699410;84;21212;-62
2021/03/25 09:21:27;;;;;;;7.67;5.33;;;;;;;7.69;58.51;100463.20;1681434;84;21529;-62
2021/03/25 09:24:06;;;;;;;8.23;4.45;;;;;;;7.68;57.83;100465.47;1670646;85;21250;-62
2021/03/25 09:26:45;;;;;;;6.03;3.95;;;;;;;7.72;57.55;100472.57;1679546;85;21206;-62
2021/03/25 09:29:23;;;;;;;5.97;4.50;;;;;;;7.69;57.48;100465.00;1699471;84;21321;-61
2021/03/25 09:32:02;;;;;;;7.03;4.53;;;;;;;7.66;57.91;100462.15;1684731;84;21319;-61
2021/03/25 09:34:49;;;;;;;7.25;4.22;;;;;;;7.73;58.19;100472.95;1682038;84;21365;-61
2021/03/25 09:37:27;;;;;;;4.87;4.05;;;;;;;7.77;58.11;100462.17;1682614;84;21388;-61
2021/03/25 09:40:30;;;;;;;9.68;4.78;;;;;;;7.88;58.07;100473.12;1683964;83;21215;-60
2021/03/25 09:43:36;;;;;;;6.08;4.17;;;;;;;8.02;57.91;100467.72;1688966;84;21656;-61
2021/03/25 09:46:32;;;;;;;5.53;4.00;;;;;;;8.19;57.33;100473.80;1652479;84;22048;-61
2021/03/25 09:49:30;;;;;;;5.08;4.00;;;;;;;8.21;57.05;100465.86;1673160;84;22084;-60
2021/03/25 09:52:15;;;;;;;6.67;3.77;;;;;;;8.25;56.67;100465.50;1680219;85;21214;-60
2021/03/25 09:55:04;;;;;;;7.08;4.65;;;;;;;8.34;56.95;100472.66;1669849;84;21318;-60
2021/03/25 09:57:41;;;;;;;8.48;5.35;;;;;;;8.60;56.72;100474.10;1677136;85;22074;-64
2021/03/25 10:00:27;;;;;;;6.37;4.42;;;;;;;8.75;56.06;100468.17;1670428;85;21337;-63
2021/03/25 10:03:08;;;;;;;6.95;4.12;;;;;;;8.85;55.46;100473.04;1680001;85;21352;-65
2021/03/25 10:05:46;;;;;;;6.42;3.80;;;;;;;8.87;54.97;100472.91;1681257;84;21321;-62
2021/03/25 10:08:31;;;;;;;6.17;4.33;;;;;;;8.80;54.03;100464.27;1669204;85;21242;-64
2021/03/25 10:11:08;;;;;;;4.75;3.72;;;;;;;8.86;54.96;100459.52;1684638;84;21191;-63
2021/03/25 10:13:46;;;;;;;4.67;3.55;;;;;;;9.02;54.60;100459.97;1661767;85;21292;-63
2021/03/25 10:16:45;;;;;;;8.15;3.72;;;;;;;9.06;53.76;100463.52;1681392;85;21663;-64
2021/03/25 10:19:39;;;;;;;7.12;4.42;;;;;;;9.00;53.67;100461.41;1699500;84;22141;-61
2021/03/25 10:22:23;;;;;;;6.53;3.72;;;;;;;8.89;53.92;100457.48;1683498;84;21334;-64
2021/03/25 10:24:58;;;;;;;7.03;4.47;;;;;;;8.83;54.04;100450.61;1682984;84;22110;-63
2021/03/25 10:27:42;;;;;;;4.78;3.37;;;;;;;8.81;54.23;100455.97;1683037;84;21372;-64
2021/03/25 10:30:33;;;;;;;5.95;4.05;;;;;;;8.86;54.31;100458.22;1704896;84;21261;-61
2021/03/25 10:33:12;;;;;;;6.85;3.62;;;;;;;8.90;54.80;100441.34;1680632;84;21348;-63
2021/03/25 10:36:07;;;;;;;5.65;3.62;;;;;;;9.01;55.09;100450.46;1667995;84;21580;-64
2021/03/25 10:38:55;;;;;;;5.08;4.10;;;;;;;9.07;54.53;100445.61;1679049;85;21308;-64
2021/03/25 10:41:35;;;;;;;5.95;4.53;;;;;;;9.08;54.63;100449.02;1699776;84;22105;-63
2021/03/25 10:44:30;;;;;;;6.37;4.45;;;;;;;9.08;54.97;100442.02;1698110;84;21337;-64
2021/03/25 10:47:30;;;;;;;8.55;3.95;;;;;;;9.09;54.65;100450.70;1682214;84;21325;-63
2021/03/25 10:50:02;;;;;;;6.25;3.75;;;;;;;9.06;54.62;100438.70;1664338;85;21492;-64
2021/03/25 10:56:45;;;;;;;8.98;4.95;;;;;;;8.88;54.98;100441.48;1665830;86;21455;-64
2021/03/25 10:59:20;;;;;;;;;;;;;;;8.96;55.73;100446.91;1655354;86;21387;-65
2021/03/25 11:02:00;;;;;;;8.45;4.05;;;;;;;9.12;55.12;100443.43;1645834;86;20338;-65
2021/03/25 11:04:35;;;;;;;4.95;3.72;;;;;;;9.28;54.89;100439.97;1649718;87;21228;-63
2021/03/25 11:07:15;;;;;;;6.72;4.30;;;;;;;9.37;54.21;100439.22;1650568;87;21176;-73
2021/03/25 11:10:00;;;;;;;19.42;12.88;;;;;;;9.33;54.72;100440.43;1650176;85;21388;-67
2021/03/25 11:12:35;;;;;;;9.45;4.30;;;;;;;9.37;55.08;100448.37;1649914;85;21959;-64
2021/03/25 11:15:26;;;;;;;7.72;4.58;;;;;;;9.47;54.31;100449.29;1651151;87;21267;-72
2021/03/25 11:18:02;;;;;;;5.80;4.60;;;;;;;9.54;54.31;100443.08;1650879;87;21247;-68
2021/03/25 11:20:36;;;;;;;5.58;4.17;;;;;;;9.66;54.15;100440.77;1647597;86;21490;-71
2021/03/25 11:23:15;;;;;;;10.38;4.33;;;;;;;9.68;53.61;100440.16;1650913;87;21332;-67
2021/03/25 11:25:50;;;;;;;8.13;5.10;;;;;;;9.55;53.53;100443.45;1651702;85;21260;-67
2021/03/25 11:28:24;;;;;;;7.75;4.83;;;;;;;9.41;54.72;100445.84;1649827;85;21503;-69
2021/03/25 11:31:21;;;;;;;8.05;4.17;;;;;;;9.32;54.12;100441.38;1651118;87;21494;-68
2021/03/25 11:33:55;;;;;;;34.85;18.35;;;;;;;9.20;54.58;100436.30;1651037;84;21216;-68
2021/03/25 11:36:47;;;;;;;47.48;28.00;;;;;;;9.13;55.08;100439.05;1649379;86;21223;-73
2021/03/25 11:39:28;;;;;;;9.00;5.62;;;;;;;9.14;55.35;100431.57;1650116;85;22017;-69
2021/03/25 11:42:04;;;;;;;8.70;5.28;;;;;;;9.12;55.12;100436.09;1651036;87;21215;-69
2021/03/25 11:44:45;;;;;;;;;;;;;;;9.02;55.10;100441.69;1652703;87;22126;-71
2021/03/25 11:47:27;;;;;;;10.10;4.70;;;;;;;8.95;54.88;100436.13;1650993;87;20206;-66
2021/03/25 11:50:25;;;;;;;8.83;4.83;;;;;;;8.89;55.07;100439.67;1645126;85;21392;-65
2021/03/25 11:53:06;;;;;;;7.25;5.05;;;;;;;8.93;55.57;100439.34;1650119;86;21231;-69
2021/03/25 11:55:44;;;;;;;6.62;4.90;;;;;;;8.98;55.03;100438.97;1650880;85;21235;-70
2021/03/25 11:58:22;;;;;;;9.33;5.45;;;;;;;8.99;54.42;100438.84;1640911;87;21334;-66
2021/03/25 12:01:06;;;;;;;9.55;5.70;;;;;;;8.99;54.15;100432.78;1651001;87;21470;-65
2021/03/25 12:04:06;;;;;;;10.00;5.33;;;;;;;9.00;53.79;100433.98;1651916;85;21332;-65
2021/03/25 12:07:06;;;;;;;6.97;4.87;;;;;;;9.02;54.01;100426.02;1642226;87;21216;-70
2021/03/25 12:09:59;;;;;;;10.18;6.65;;;;;;;9.00;53.47;100430.54;1649828;87;21232;-68
2021/03/25 12:12:35;;;;;;;8.85;5.28;;;;;;;8.90;54.02;100426.52;1651187;85;21228;-66
2021/03/25 12:15:09;;;;;;;18.45;12.35;;;;;;;8.77;53.30;100417.98;1650212;85;21192;-70
2021/03/25 12:17:56;;;;;;;10.63;5.72;;;;;;;8.65;54.44;100421.55;1652500;85;21207;-65
2021/03/25 12:20:37;;;;;;;11.50;6.58;;;;;;;8.62;55.28;100421.31;1648952;87;21204;-65
2021/03/25 12:23:19;;;;;;;9.63;5.47;;;;;;;8.65;55.74;100425.47;1651028;87;21443;-68
2021/03/25 12:25:56;;;;;;;10.65;7.10;;;;;;;8.66;55.81;100423.22;1650338;85;22048;-66
2021/03/25 12:28:30;;;;;;;11.33;5.97;;;;;;;8.59;55.98;100423.34;1650840;87;21255;-60
2021/03/25 12:31:07;;;;;;;12.33;4.53;;;;;;;8.53;55.61;100422.50;1650108;85;21904;-63
2021/03/25 12:33:40;;;;;;;8.20;5.62;;;;;;;8.40;55.57;100423.95;1651086;87;22086;-59
2021/03/25 12:36:15;;;;;;;17.23;6.95;;;;;;;8.34;55.94;100423.09;1651056;87;21469;-60
2021/03/25 12:38:49;;;;;;;7.10;4.87;;;;;;;8.41;56.58;100420.37;1649609;86;21208;-62
2021/03/25 12:41:39;;;;;;;7.90;4.50;;;;;;;8.43;55.71;100411.14;1648279;86;21562;-64
2021/03/25 12:44:15;;;;;;;8.95;4.90;;;;;;;8.43;55.84;100415.05;1651827;85;21558;-66
2021/03/25 12:46:50;;;;;;;9.23;5.15;;;;;;;8.41;55.56;100419.06;1653145;86;21994;-66
2021/03/25 12:49:23;;;;;;;7.00;4.97;;;;;;;8.37;55.63;100416.34;1650594;87;21232;-63
2021/03/25 12:51:58;;;;;;;10.18;5.53;;;;;;;8.36;55.39;100409.45;1650302;85;21219;-62
2021/03/25 12:54:33;;;;;;;12.60;5.17;;;;;;;8.37;55.58;100415.52;1651275;85;21369;-62
2021/03/25 12:57:09;;;;;;;12.85;6.05;;;;;;;8.41;55.12;100413.84;1651751;85;21215;-61
2021/03/25 12:59:43;;;;;;;10.00;6.00;;;;;;;8.43;55.32;100408.03;1640538;87;22123;-59
2021/03/25 13:02:27;;;;;;;9.85;5.60;;;;;;;8.49;55.57;100414.09;1651830;87;22008;-60
2021/03/25 13:05:02;;;;;;;15.25;7.72;;;;;;;8.51;55.86;100408.28;1651468;85;22003;-60